createdAt,value
2018-04-14T00:00:21.457Z,15.50
2018-04-14T00:02:48.474Z,15.40
2018-04-14T00:05:15.439Z,15.40
2018-04-14T00:07:42.450Z,15.40
2018-04-14T00:10:10.294Z,15.40
2018-04-14T00:12:38.309Z,15.40
2018-04-14T00:15:08.139Z,15.40
2018-04-14T00:17:35.064Z,15.30
2018-04-14T00:20:02.712Z,15.20
2018-04-14T00:22:30.353Z,15.20
2018-04-14T00:24:57.358Z,15.20
2018-04-14T00:27:24.304Z,15.20
2018-04-14T00:29:51.404Z,15.20
2018-04-14T00:32:18.289Z,15.20
2018-04-14T00:34:45.982Z,15.20
2018-04-14T00:37:12.920Z,15.10
2018-04-14T00:39:39.978Z,15.20
2018-04-14T00:42:06.853Z,15.10
2018-04-14T00:44:33.711Z,15.20
2018-04-14T00:47:00.645Z,15.10
2018-04-14T00:49:27.551Z,15.10
2018-04-14T00:51:54.473Z,15.10
2018-04-14T00:54:22.253Z,15.10
2018-04-14T00:56:49.250Z,15.10
2018-04-14T00:59:16.136Z,15.00
2018-04-14T01:01:43.840Z,14.90
2018-04-14T01:04:10.768Z,14.90
2018-04-14T01:06:37.709Z,14.90
2018-04-14T01:09:05.463Z,14.90
2018-04-14T01:11:32.391Z,14.90
2018-04-14T01:14:00.049Z,14.90
2018-04-14T01:16:26.998Z,14.90
2018-04-14T01:18:54.658Z,14.90
2018-04-14T01:21:21.591Z,14.80
2018-04-14T01:23:48.523Z,14.80
2018-04-14T01:26:16.230Z,14.80
2018-04-14T01:28:43.913Z,14.80
2018-04-14T01:31:10.874Z,14.80
2018-04-14T01:33:37.781Z,14.80
2018-04-14T01:36:05.518Z,14.70
2018-04-14T01:38:32.363Z,14.70
2018-04-14T01:40:59.366Z,14.70
2018-04-14T01:43:26.240Z,14.60
2018-04-14T01:45:53.239Z,14.60
2018-04-14T01:48:20.937Z,14.60
2018-04-14T01:50:47.887Z,14.60
2018-04-14T01:53:14.804Z,14.50
2018-04-14T01:55:42.407Z,14.40
2018-04-14T01:58:09.338Z,14.40
2018-04-14T02:00:36.256Z,14.40
2018-04-14T02:03:03.917Z,14.40
2018-04-14T02:05:31.570Z,14.40
2018-04-14T02:07:58.445Z,14.40
2018-04-14T02:10:25.442Z,14.40
2018-04-14T02:12:52.407Z,14.40
2018-04-14T02:15:19.230Z,14.30
2018-04-14T02:17:46.162Z,14.30
2018-04-14T02:20:13.002Z,14.30
2018-04-14T02:22:39.990Z,14.30
2018-04-14T02:25:06.843Z,14.30
2018-04-14T02:27:34.484Z,14.30
2018-04-14T02:30:01.419Z,14.30
2018-04-14T02:32:28.374Z,14.30
2018-04-14T02:34:55.312Z,14.20
2018-04-14T02:37:22.215Z,14.20
2018-04-14T02:39:49.810Z,14.20
2018-04-14T02:42:16.701Z,14.20
2018-04-14T02:44:44.357Z,14.10
2018-04-14T02:47:12.132Z,14.10
2018-04-14T02:49:39.795Z,14.10
2018-04-14T02:52:07.455Z,14.10
2018-04-14T02:54:34.453Z,14.10
2018-04-14T02:57:01.414Z,14.00
2018-04-14T02:59:28.294Z,14.00
2018-04-14T03:01:55.944Z,14.00
2018-04-14T03:04:22.765Z,14.00
2018-04-14T03:06:49.667Z,13.90
2018-04-14T03:09:17.327Z,13.80
2018-04-14T03:11:45.026Z,13.80
2018-04-14T03:14:11.918Z,13.80
2018-04-14T03:16:38.861Z,13.80
2018-04-14T03:19:05.728Z,13.80
2018-04-14T03:21:33.397Z,13.80
2018-04-14T03:24:01.072Z,13.80
2018-04-14T03:26:27.901Z,13.80
2018-04-14T03:28:55.549Z,13.80
2018-04-14T03:31:22.469Z,13.70
2018-04-14T03:33:49.432Z,13.80
2018-04-14T03:36:16.424Z,13.80
2018-04-14T03:38:43.360Z,13.80
2018-04-14T03:41:10.998Z,13.70
2018-04-14T03:43:37.932Z,13.70
2018-04-14T03:46:04.773Z,13.70
2018-04-14T03:48:31.583Z,13.80
2018-04-14T03:50:58.555Z,13.80
2018-04-14T03:53:25.397Z,13.80
2018-04-14T03:55:52.361Z,13.90
2018-04-14T03:58:19.330Z,14.00
2018-04-14T04:00:46.335Z,14.10
2018-04-14T04:03:20.294Z,14.20
2018-04-14T04:05:47.974Z,14.20
2018-04-14T04:08:14.804Z,14.20
2018-04-14T04:10:42.430Z,14.20
2018-04-14T04:13:09.353Z,14.20
2018-04-14T04:15:36.380Z,14.20
2018-04-14T04:18:03.307Z,14.10
2018-04-14T04:20:43.087Z,14.20
2018-04-14T04:23:22.138Z,14.20
2018-04-14T04:25:49.085Z,14.30
2018-04-14T04:28:15.997Z,14.30
2018-04-14T04:30:42.955Z,14.30
2018-04-14T04:33:09.885Z,14.30
2018-04-14T04:35:37.674Z,14.40
2018-04-14T04:38:04.519Z,14.40
2018-04-14T04:40:31.613Z,14.40
2018-04-14T04:42:58.659Z,14.40
2018-04-14T04:45:25.707Z,14.40
2018-04-14T04:47:52.763Z,14.40
2018-04-14T04:50:19.705Z,14.50
2018-04-14T04:52:46.652Z,14.50
2018-04-14T04:55:13.697Z,14.50
2018-04-14T04:57:40.750Z,14.50
2018-04-14T05:00:07.797Z,14.50
2018-04-14T05:02:34.744Z,14.50
2018-04-14T05:05:01.804Z,14.50
2018-04-14T05:07:28.745Z,14.50
2018-04-14T05:09:56.313Z,14.50
2018-04-14T05:12:24.284Z,14.50
2018-04-14T05:14:52.861Z,14.50
2018-04-14T05:17:19.911Z,14.50
2018-04-14T05:19:46.855Z,14.50
2018-04-14T05:22:13.907Z,14.50
2018-04-14T05:24:40.886Z,14.60
2018-04-14T05:27:07.904Z,14.60
2018-04-14T05:29:35.158Z,14.60
2018-04-14T05:32:02.208Z,14.60
2018-04-14T05:34:29.265Z,14.60
2018-04-14T05:36:57.021Z,14.70
2018-04-14T05:39:24.072Z,14.70
2018-04-14T05:41:51.225Z,14.70
2018-04-14T05:44:18.282Z,14.70
2018-04-14T05:46:46.858Z,14.70
2018-04-14T05:49:13.823Z,14.70
2018-04-14T05:51:41.676Z,14.80
2018-04-14T05:54:08.773Z,14.70
2018-04-14T05:56:35.976Z,14.70
2018-04-14T05:59:02.973Z,14.80
2018-04-14T06:01:30.688Z,14.80
2018-04-14T06:03:57.749Z,14.80
2018-04-14T06:06:24.788Z,14.80
2018-04-14T06:08:51.942Z,14.90
2018-04-14T06:11:18.999Z,14.90
2018-04-14T06:14:01.938Z,14.90
2018-04-14T06:16:30.292Z,14.90
2018-04-14T06:18:57.406Z,14.90
2018-04-14T06:21:24.308Z,15.00
2018-04-14T06:23:51.234Z,15.00
2018-04-14T06:26:18.074Z,15.00
2018-04-14T06:28:45.167Z,15.10
2018-04-14T06:31:12.875Z,15.10
2018-04-14T06:33:39.762Z,15.10
2018-04-14T06:36:07.212Z,15.10
2018-04-14T06:38:34.149Z,15.20
2018-04-14T06:41:01.131Z,15.20
2018-04-14T06:43:28.911Z,15.20
2018-04-14T06:45:55.933Z,15.20
2018-04-14T06:48:23.673Z,15.30
2018-04-14T06:50:51.434Z,15.30
2018-04-14T06:53:18.436Z,15.30
2018-04-14T06:55:46.203Z,15.40
2018-04-14T06:58:13.126Z,15.40
2018-04-14T07:00:40.013Z,15.40
2018-04-14T07:03:06.955Z,15.40
2018-04-14T07:05:34.073Z,15.40
2018-04-14T07:08:01.733Z,15.60
2018-04-14T07:10:35.906Z,15.60
2018-04-14T07:13:02.801Z,15.60
2018-04-14T07:15:30.456Z,15.70
2018-04-14T07:17:57.319Z,15.70
2018-04-14T07:20:25.962Z,15.70
2018-04-14T07:22:52.940Z,15.80
2018-04-14T07:25:19.833Z,15.80
2018-04-14T07:27:46.816Z,15.80
2018-04-14T07:30:13.861Z,15.90
2018-04-14T07:32:40.908Z,15.90
2018-04-14T07:35:07.959Z,15.90
2018-04-14T07:37:35.040Z,15.90
2018-04-14T07:40:02.993Z,16.00
2018-04-14T07:42:30.031Z,16.00
2018-04-14T07:44:57.083Z,16.00
2018-04-14T07:47:24.127Z,16.00
2018-04-14T07:49:51.556Z,16.10
2018-04-14T07:52:18.536Z,16.10
2018-04-14T07:54:45.787Z,16.20
2018-04-14T07:57:12.748Z,16.20
2018-04-14T07:59:40.839Z,16.30
2018-04-14T08:02:08.623Z,16.40
2018-04-14T08:04:36.361Z,16.40
2018-04-14T08:07:03.288Z,16.40
2018-04-14T08:09:30.212Z,16.50
2018-04-14T08:11:57.308Z,16.50
2018-04-14T08:14:27.631Z,16.50
2018-04-14T08:16:54.665Z,16.60
2018-04-14T08:19:21.710Z,16.60
2018-04-14T08:21:48.760Z,16.70
2018-04-14T08:24:15.812Z,16.70
2018-04-14T08:26:42.973Z,16.80
2018-04-14T08:29:10.066Z,16.80
2018-04-14T08:31:37.060Z,16.80
2018-04-14T08:34:04.111Z,16.80
2018-04-14T08:36:31.161Z,16.90
2018-04-14T08:38:58.105Z,16.90
2018-04-14T08:41:25.156Z,17.00
2018-04-14T08:43:52.322Z,17.10
2018-04-14T08:46:19.465Z,17.10
2018-04-14T08:48:46.508Z,17.20
2018-04-14T08:51:13.662Z,17.20
2018-04-14T08:53:40.519Z,17.20
2018-04-14T08:56:07.681Z,17.30
2018-04-14T08:58:34.707Z,17.40
2018-04-14T09:01:01.763Z,17.40
2018-04-14T09:03:28.909Z,17.40
2018-04-14T09:05:55.960Z,17.50
2018-04-14T09:08:23.111Z,17.60
2018-04-14T09:10:50.044Z,17.60
2018-04-14T09:13:17.022Z,17.70
2018-04-14T09:15:44.054Z,17.70
2018-04-14T09:18:11.115Z,17.70
2018-04-14T09:20:38.172Z,17.70
2018-04-14T09:23:06.132Z,17.90
2018-04-14T09:25:32.992Z,17.90
2018-04-14T09:28:00.566Z,18.00
2018-04-14T09:30:27.517Z,18.00
2018-04-14T09:32:55.260Z,18.20
2018-04-14T09:35:22.167Z,18.10
2018-04-14T09:37:49.055Z,18.20
2018-04-14T09:40:16.092Z,18.30
2018-04-14T09:42:43.133Z,18.40
2018-04-14T09:45:10.099Z,18.40
2018-04-14T09:47:37.118Z,18.40
2018-04-14T09:50:04.051Z,18.50
2018-04-14T09:55:23.483Z,18.60
2018-04-14T09:57:50.634Z,18.80
2018-04-14T10:00:23.727Z,18.90
2018-04-14T10:02:50.666Z,18.90
2018-04-14T10:05:17.626Z,19.00
2018-04-14T10:07:45.483Z,19.10
2018-04-14T10:10:12.428Z,19.10
2018-04-14T10:12:39.198Z,19.20
2018-04-14T10:15:06.232Z,19.30
2018-04-14T10:17:33.986Z,19.40
2018-04-14T10:20:01.044Z,19.40
2018-04-14T10:22:27.982Z,19.50
2018-04-14T10:24:54.828Z,19.60
2018-04-14T10:27:21.772Z,19.60
2018-04-14T10:29:48.748Z,19.70
2018-04-14T10:32:16.419Z,19.90
2018-04-14T10:34:43.414Z,19.90
2018-04-14T10:37:11.207Z,20.20
2018-04-14T10:39:38.667Z,20.10
2018-04-14T10:42:06.423Z,20.50
2018-04-14T10:44:33.373Z,20.50
2018-04-14T10:47:00.427Z,20.70
2018-04-14T10:49:27.583Z,20.90
2018-04-14T10:51:54.625Z,21.50
2018-04-14T10:54:21.674Z,22.50
2018-04-14T10:56:48.730Z,23.50
2018-04-14T10:59:15.783Z,24.50
2018-04-14T11:01:42.620Z,25.40
2018-04-14T11:04:09.678Z,26.20
2018-04-14T11:06:36.840Z,26.80
2018-04-14T11:09:03.777Z,27.50
2018-04-14T11:11:30.703Z,28.00
2018-04-14T11:14:15.345Z,28.70
2018-04-14T11:16:42.235Z,29.30
2018-04-14T11:19:09.076Z,29.80
2018-04-14T11:21:35.966Z,30.20
2018-04-14T11:24:03.544Z,31.00
2018-04-14T11:26:30.382Z,31.00
2018-04-14T11:28:57.155Z,31.40
2018-04-14T11:31:24.011Z,31.90
2018-04-14T11:33:50.844Z,32.10
2018-04-14T11:36:17.804Z,32.30
2018-04-14T11:38:44.606Z,32.60
2018-04-14T11:41:11.390Z,33.00
2018-04-14T11:43:38.293Z,33.50
2018-04-14T11:46:05.283Z,33.80
2018-04-14T11:48:32.229Z,34.20
2018-04-14T11:50:58.983Z,34.20
2018-04-14T11:53:25.991Z,34.00
2018-04-14T11:55:52.868Z,34.40
2018-04-14T11:58:19.877Z,34.80
2018-04-14T12:00:46.914Z,35.30
2018-04-14T12:03:13.818Z,35.80
2018-04-14T12:05:40.757Z,36.30
2018-04-14T12:08:07.729Z,36.70
2018-04-14T12:10:38.928Z,37.30
2018-04-14T12:13:05.791Z,37.30
2018-04-14T12:15:32.633Z,37.50
2018-04-14T12:17:59.448Z,37.90
2018-04-14T12:20:26.398Z,38.30
2018-04-14T12:22:53.400Z,38.60
2018-04-14T12:25:20.312Z,38.80
2018-04-14T12:27:47.138Z,38.90
2018-04-14T12:30:14.004Z,39.20
2018-04-14T12:32:40.908Z,39.30
2018-04-14T12:35:07.854Z,39.50
2018-04-14T12:37:34.729Z,39.70
2018-04-14T12:40:01.683Z,40.00
2018-04-14T12:42:28.499Z,39.90
2018-04-14T12:44:55.489Z,40.00
2018-04-14T12:47:22.364Z,40.20
2018-04-14T12:49:49.453Z,40.30
2018-04-14T12:52:16.377Z,40.30
2018-04-14T12:54:43.255Z,40.20
2018-04-14T12:57:10.112Z,40.10
2018-04-14T12:59:36.990Z,40.10
2018-04-14T13:02:03.856Z,40.30
2018-04-14T13:04:31.507Z,40.70
2018-04-14T13:06:59.069Z,40.80
2018-04-14T13:09:26.657Z,41.00
2018-04-14T13:11:53.651Z,41.00
2018-04-14T13:14:46.331Z,41.10
2018-04-14T13:17:14.068Z,41.60
2018-04-14T13:19:41.526Z,41.60
2018-04-14T13:22:08.502Z,41.60
2018-04-14T13:24:36.206Z,41.60
2018-04-14T13:27:03.098Z,41.50
2018-04-14T13:29:29.964Z,41.60
2018-04-14T13:31:57.536Z,41.70
2018-04-14T13:34:34.453Z,41.60
2018-04-14T13:37:01.290Z,41.90
2018-04-14T13:39:28.143Z,42.00
2018-04-14T13:41:54.952Z,42.00
2018-04-14T13:44:21.909Z,42.10
2018-04-14T13:46:48.871Z,42.20
2018-04-14T13:49:15.693Z,42.20
2018-04-14T13:51:42.562Z,42.40
2018-04-14T13:54:09.405Z,42.30
2018-04-14T13:56:36.273Z,42.30
2018-04-14T13:59:03.076Z,42.20
2018-04-14T14:01:29.901Z,42.10
2018-04-14T14:03:57.571Z,42.10
2018-04-14T14:06:25.203Z,42.10
2018-04-14T14:08:51.969Z,42.10
2018-04-14T14:11:19.626Z,42.10
2018-04-14T14:14:07.114Z,42.10
2018-04-14T14:16:33.869Z,42.10
2018-04-14T14:19:00.687Z,42.00
2018-04-14T14:21:27.461Z,41.90
2018-04-14T14:23:54.307Z,41.70
2018-04-14T14:26:21.259Z,41.60
2018-04-14T14:28:48.090Z,41.30
2018-04-14T14:31:14.935Z,41.00
2018-04-14T14:33:41.782Z,40.70
2018-04-14T14:36:08.732Z,40.60
2018-04-14T14:38:35.542Z,40.50
2018-04-14T14:41:02.534Z,40.40
2018-04-14T14:43:29.413Z,40.30
2018-04-14T14:45:56.404Z,40.10
2018-04-14T14:48:23.209Z,39.80
2018-04-14T14:50:50.786Z,39.40
2018-04-14T14:53:17.653Z,39.40
2018-04-14T14:55:44.528Z,39.00
2018-04-14T14:58:11.367Z,38.60
2018-04-14T15:00:38.184Z,38.40
2018-04-14T15:03:05.077Z,38.10
2018-04-14T15:05:32.718Z,37.20
2018-04-14T15:07:59.588Z,37.20
2018-04-14T15:10:33.068Z,36.70
2018-04-14T15:12:59.936Z,36.10
2018-04-14T15:15:57.393Z,35.00
2018-04-14T15:18:25.171Z,34.50
2018-04-14T15:20:56.623Z,34.40
2018-04-14T15:23:24.285Z,33.70
2018-04-14T15:25:51.922Z,33.40
2018-04-14T15:28:18.808Z,33.20
2018-04-14T15:30:45.709Z,32.90
2018-04-14T15:33:12.557Z,32.50
2018-04-14T15:35:39.701Z,32.20
2018-04-14T15:38:06.762Z,31.90
2018-04-14T15:40:34.026Z,31.70
2018-04-14T15:43:02.205Z,31.20
2018-04-14T15:45:30.494Z,31.00
2018-04-14T15:47:58.436Z,30.80
2018-04-14T15:50:25.552Z,30.80
2018-04-14T15:52:52.785Z,30.60
2018-04-14T15:55:19.873Z,30.40
2018-04-14T15:57:46.931Z,30.20
2018-04-14T16:00:14.084Z,30.00
2018-04-14T16:02:41.153Z,29.80
2018-04-14T16:05:08.280Z,29.60
2018-04-14T16:07:35.438Z,29.40
2018-04-14T16:10:02.723Z,29.40
2018-04-14T16:12:30.911Z,29.10
2018-04-14T16:18:02.389Z,28.90
2018-04-14T16:20:30.868Z,28.50
2018-04-14T16:22:59.143Z,28.40
2018-04-14T16:25:27.531Z,28.30
2018-04-14T16:27:55.707Z,28.10
2018-04-14T16:30:24.082Z,27.90
2018-04-14T16:32:51.543Z,27.90
2018-04-14T16:35:19.924Z,27.70
2018-04-14T16:37:48.210Z,27.60
2018-04-14T16:40:16.259Z,27.50
2018-04-14T16:42:43.385Z,27.40
2018-04-14T16:45:10.614Z,27.40
2018-04-14T16:47:37.823Z,27.30
2018-04-14T16:50:05.679Z,27.00
2018-04-14T16:52:32.934Z,26.90
2018-04-14T16:55:00.136Z,26.90
2018-04-14T16:57:27.262Z,26.70
2018-04-14T16:59:55.084Z,26.60
2018-04-14T17:02:22.157Z,26.60
2018-04-14T17:04:49.319Z,26.40
2018-04-14T17:07:17.228Z,26.30
2018-04-14T17:09:44.821Z,26.30
2018-04-14T17:12:11.978Z,26.20
2018-04-14T17:17:47.216Z,26.00
2018-04-14T17:20:14.401Z,25.80
2018-04-14T17:22:41.596Z,25.70
2018-04-14T17:25:09.489Z,25.60
2018-04-14T17:27:36.915Z,25.60
2018-04-14T17:30:05.248Z,25.40
2018-04-14T17:32:32.860Z,25.40
2018-04-14T17:35:00.817Z,25.20
2018-04-14T17:37:29.170Z,25.20
2018-04-14T17:39:56.460Z,25.20
2018-04-14T17:42:24.537Z,25.10
2018-04-14T17:44:52.713Z,25.00
2018-04-14T17:47:20.794Z,25.00
2018-04-14T17:49:48.255Z,25.00
2018-04-14T17:52:16.657Z,24.80
2018-04-14T17:54:44.316Z,24.70
2018-04-14T17:57:11.648Z,24.70
2018-04-14T17:59:40.327Z,24.50
2018-04-14T18:02:08.542Z,24.50
2018-04-14T18:04:36.896Z,24.50
2018-04-14T18:07:04.244Z,24.40
2018-04-14T18:09:39.357Z,24.30
2018-04-14T18:12:08.849Z,24.30
2018-04-14T18:17:38.215Z,24.20
2018-04-14T18:20:06.229Z,24.20
2018-04-14T18:22:33.421Z,24.10
2018-04-14T18:25:00.811Z,24.10
2018-04-14T18:27:29.077Z,24.00
2018-04-14T18:29:57.007Z,24.00
2018-04-14T18:32:24.162Z,23.90
2018-04-14T18:34:51.384Z,24.00
2018-04-14T18:37:18.448Z,23.90
2018-04-14T18:39:45.963Z,23.80
2018-04-14T18:42:13.911Z,23.70
2018-04-14T18:44:42.828Z,23.70
2018-04-14T18:47:11.857Z,23.50
2018-04-14T18:49:40.392Z,23.50
2018-04-14T18:52:08.581Z,23.50
2018-04-14T18:54:36.696Z,23.50
2018-04-14T18:57:04.121Z,23.50
2018-04-14T18:59:32.673Z,23.40
2018-04-14T19:02:00.872Z,23.30
2018-04-14T19:04:29.265Z,23.30
2018-04-14T19:06:57.639Z,23.10
2018-04-14T19:09:25.736Z,23.00
2018-04-14T19:11:53.900Z,22.90
2018-04-14T19:17:45.238Z,22.90
2018-04-14T19:20:13.618Z,22.80
2018-04-14T19:22:41.924Z,22.70
2018-04-14T19:25:10.019Z,22.70
2018-04-14T19:27:38.244Z,22.70
2018-04-14T19:30:07.870Z,22.70
2018-04-14T19:32:35.409Z,22.70
2018-04-14T19:35:03.806Z,22.70
2018-04-14T19:37:32.076Z,22.70
2018-04-14T19:40:00.255Z,22.60
2018-04-14T19:42:27.810Z,22.60
2018-04-14T19:44:56.198Z,22.50
2018-04-14T19:47:24.212Z,22.50
2018-04-14T19:49:52.415Z,22.50
2018-04-14T19:52:19.911Z,22.40
2018-04-14T19:54:48.178Z,22.40
2018-04-14T19:57:16.494Z,22.40
2018-04-14T19:59:43.961Z,22.30
2018-04-14T20:02:12.088Z,22.30
2018-04-14T20:04:41.507Z,22.20
2018-04-14T20:07:08.965Z,22.20
2018-04-14T20:09:37.489Z,22.20
2018-04-14T20:12:05.718Z,22.20
2018-04-14T20:21:29.747Z,22.10
2018-04-14T20:23:58.237Z,22.00
2018-04-14T20:29:43.493Z,21.90
2018-04-14T20:32:10.883Z,21.90
2018-04-14T20:34:39.213Z,21.80
2018-04-14T20:37:07.554Z,21.80
2018-04-14T20:39:35.745Z,21.80
2018-04-14T20:42:02.910Z,21.70
2018-04-14T20:44:30.146Z,21.80
2018-04-14T20:46:57.787Z,21.70
2018-04-14T20:49:26.180Z,21.70
2018-04-14T20:51:54.266Z,21.70
2018-04-14T20:54:22.526Z,21.60
2018-04-14T20:56:50.803Z,21.60
2018-04-14T20:59:19.079Z,21.60
2018-04-14T21:01:47.357Z,21.50
2018-04-14T21:04:15.741Z,21.50
2018-04-14T21:06:43.808Z,21.50
2018-04-14T21:09:12.131Z,21.50
2018-04-14T21:11:40.052Z,21.50
2018-04-14T21:14:33.896Z,21.40
2018-04-14T21:17:01.833Z,21.40
2018-04-14T21:19:29.269Z,21.40
2018-04-14T21:21:57.130Z,21.40
2018-04-14T21:24:24.884Z,21.30
2018-04-14T21:26:51.932Z,21.30
2018-04-14T21:29:18.982Z,21.30
2018-04-14T21:31:46.444Z,21.20
2018-04-14T21:34:14.701Z,21.20
2018-04-14T21:36:42.985Z,21.20
2018-04-14T21:39:10.854Z,21.10
2018-04-14T21:41:37.903Z,21.10
2018-04-14T21:44:06.380Z,21.10
2018-04-14T21:46:33.322Z,21.10
2018-04-14T21:49:00.277Z,21.10
2018-04-14T21:51:29.166Z,21.10
2018-04-14T21:53:56.930Z,21.10
2018-04-14T21:56:23.978Z,21.10
2018-04-14T21:58:51.871Z,21.10
2018-04-14T22:01:19.638Z,21.10
2018-04-14T22:03:47.275Z,21.00
2018-04-14T22:06:14.836Z,20.90
2018-04-14T22:08:41.687Z,20.90
2018-04-14T22:11:09.448Z,20.90
2018-04-14T22:13:36.244Z,20.80
2018-04-14T22:16:03.104Z,20.80
2018-04-14T22:18:30.112Z,20.80
2018-04-14T22:20:57.147Z,20.80
2018-04-14T22:23:24.195Z,20.80
2018-04-14T22:25:51.039Z,20.80
2018-04-14T22:28:17.878Z,20.80
2018-04-14T22:30:44.924Z,20.70
2018-04-14T22:33:11.875Z,20.80
2018-04-14T22:35:38.817Z,20.70
2018-04-14T22:38:05.778Z,20.70
2018-04-14T22:40:32.642Z,20.70
2018-04-14T22:43:00.382Z,20.60
2018-04-14T22:45:27.331Z,20.60
2018-04-14T22:47:54.375Z,20.60
2018-04-14T22:50:21.436Z,20.60
2018-04-14T22:52:48.472Z,20.60
2018-04-14T22:55:15.418Z,20.60
2018-04-14T22:57:42.468Z,20.50
2018-04-14T23:02:42.805Z,20.60
2018-04-14T23:05:10.363Z,20.50
2018-04-14T23:07:37.333Z,20.60
2018-04-14T23:10:04.270Z,20.60
2018-04-14T23:12:31.220Z,20.60
2018-04-14T23:14:58.166Z,20.50
2018-04-14T23:17:25.110Z,20.50
2018-04-14T23:19:52.777Z,20.60
2018-04-14T23:22:19.724Z,20.50
2018-04-14T23:24:46.670Z,20.50
2018-04-14T23:27:13.493Z,20.50
2018-04-14T23:29:41.247Z,20.50
2018-04-14T23:32:08.225Z,20.50
2018-04-14T23:34:35.375Z,20.40
2018-04-14T23:37:02.325Z,20.40
2018-04-14T23:39:29.273Z,20.30
2018-04-14T23:41:56.332Z,20.30
2018-04-14T23:44:23.165Z,20.20
2018-04-14T23:46:50.115Z,20.20
2018-04-14T23:49:16.886Z,20.20
2018-04-14T23:51:43.905Z,20.10
2018-04-14T23:54:10.854Z,20.10
2018-04-14T23:56:37.818Z,20.10
2018-04-14T23:59:04.850Z,20.00
